createdAt,value
2019-03-31T00:02:11.215Z,66.70
2019-03-31T00:04:41.617Z,70.20
2019-03-31T00:07:12.141Z,69.17
2019-03-31T00:09:53.606Z,68.73
2019-03-31T00:12:24.042Z,67.87
2019-03-31T00:14:54.474Z,69.40
2019-03-31T00:17:24.990Z,67.97
2019-03-31T00:19:55.399Z,69.83
2019-03-31T00:22:25.935Z,109.80
2019-03-31T00:24:56.322Z,68.43
2019-03-31T00:27:26.942Z,65.50
2019-03-31T00:29:57.348Z,66.17
2019-03-31T00:32:27.773Z,72.60
2019-03-31T00:34:58.195Z,66.27
2019-03-31T00:37:28.675Z,63.93
2019-03-31T00:39:58.964Z,64.43
2019-03-31T00:42:29.436Z,67.27
2019-03-31T00:44:59.861Z,65.70
2019-03-31T00:47:30.305Z,67.07
2019-03-31T00:50:00.760Z,69.80
2019-03-31T00:52:32.407Z,71.10
2019-03-31T00:55:03.040Z,75.13
2019-03-31T00:57:33.488Z,76.87
2019-03-31T01:00:06.825Z,76.27
2019-03-31T01:02:37.324Z,73.87
2019-03-31T01:05:07.895Z,96.57
2019-03-31T01:07:38.291Z,82.33
2019-03-31T01:10:09.775Z,78.90
2019-03-31T01:12:40.855Z,130.83
2019-03-31T01:15:15.813Z,76.63
2019-03-31T01:17:46.597Z,75.23
2019-03-31T01:20:17.674Z,77.93
2019-03-31T01:22:48.677Z,81.00
2019-03-31T01:25:19.649Z,85.73
2019-03-31T01:27:50.282Z,78.80
2019-03-31T01:30:22.110Z,79.73
2019-03-31T01:32:53.666Z,82.77
2019-03-31T01:35:24.023Z,81.70
2019-03-31T01:37:54.433Z,83.50
2019-03-31T01:40:24.838Z,90.23
2019-03-31T01:42:55.230Z,82.80
2019-03-31T01:45:27.513Z,104.10
2019-03-31T01:47:57.950Z,93.13
2019-03-31T01:50:28.343Z,81.93
2019-03-31T01:52:58.763Z,80.87
2019-03-31T01:55:29.171Z,86.57
2019-03-31T01:57:59.557Z,80.23
2019-03-31T02:00:43.871Z,85.47
2019-03-31T02:03:14.267Z,82.40
2019-03-31T02:05:44.826Z,79.23
2019-03-31T02:08:15.258Z,80.60
2019-03-31T02:10:45.714Z,76.50
2019-03-31T02:13:16.087Z,86.37
2019-03-31T02:15:46.678Z,84.23
2019-03-31T02:18:17.171Z,77.17
2019-03-31T02:20:47.576Z,77.67
2019-03-31T02:23:17.987Z,77.40
2019-03-31T02:25:48.378Z,77.70
2019-03-31T02:28:22.202Z,78.10
2019-03-31T02:30:52.591Z,77.73
2019-03-31T02:33:23.040Z,76.67
2019-03-31T02:35:53.386Z,77.90
2019-03-31T02:38:23.895Z,79.47
2019-03-31T02:40:54.397Z,74.60
2019-03-31T02:43:27.018Z,75.83
2019-03-31T02:45:57.409Z,82.60
2019-03-31T02:48:27.870Z,85.53
2019-03-31T02:50:58.441Z,74.70
2019-03-31T02:53:29.039Z,75.03
2019-03-31T02:56:00.109Z,80.87
2019-03-31T02:58:31.765Z,84.57
2019-03-31T03:01:03.292Z,105.67
2019-03-31T03:03:35.747Z,93.33
2019-03-31T03:06:07.296Z,81.87
2019-03-31T03:08:40.314Z,80.03
2019-03-31T03:11:12.565Z,78.93
2019-03-31T03:13:45.288Z,76.33
2019-03-31T03:16:18.233Z,74.00
2019-03-31T03:18:48.687Z,73.50
2019-03-31T03:21:23.443Z,77.33
2019-03-31T03:23:51.218Z,75.80
2019-03-31T03:26:21.569Z,74.00
2019-03-31T03:28:52.093Z,73.53
2019-03-31T03:31:22.601Z,75.10
2019-03-31T03:33:53.194Z,73.93
2019-03-31T03:36:23.585Z,81.70
2019-03-31T03:38:54.006Z,75.87
2019-03-31T03:41:24.557Z,72.97
2019-03-31T03:43:59.598Z,69.87
2019-03-31T03:46:26.952Z,70.00
2019-03-31T03:48:59.066Z,80.97
2019-03-31T03:51:29.605Z,71.80
2019-03-31T03:54:00.122Z,75.77
2019-03-31T03:56:31.769Z,69.80
2019-03-31T03:59:02.254Z,68.17
2019-03-31T04:01:33.523Z,66.90
2019-03-31T04:04:05.510Z,66.67
2019-03-31T04:06:37.370Z,62.30
2019-03-31T04:09:07.961Z,62.93
2019-03-31T04:11:38.381Z,60.80
2019-03-31T04:14:08.861Z,61.30
2019-03-31T04:16:39.472Z,70.90
2019-03-31T04:19:10.158Z,62.33
2019-03-31T04:21:40.613Z,62.50
2019-03-31T04:24:11.053Z,59.07
2019-03-31T04:26:41.449Z,60.80
2019-03-31T04:29:11.976Z,58.57
2019-03-31T04:31:42.413Z,58.53
2019-03-31T04:34:12.907Z,55.77
2019-03-31T04:36:43.271Z,61.63
2019-03-31T04:39:13.890Z,61.63
2019-03-31T04:41:44.324Z,63.90
2019-03-31T04:44:14.839Z,66.13
2019-03-31T04:46:45.277Z,60.20
2019-03-31T04:49:15.690Z,59.13
2019-03-31T04:51:46.127Z,61.00
2019-03-31T04:54:16.736Z,62.10
2019-03-31T04:56:47.216Z,61.97
2019-03-31T04:59:17.720Z,61.17
2019-03-31T05:01:48.952Z,61.57
2019-03-31T05:04:19.403Z,63.93
2019-03-31T05:06:49.925Z,61.97
2019-03-31T05:09:20.863Z,67.00
2019-03-31T05:11:53.286Z,63.63
2019-03-31T05:14:23.706Z,63.77
2019-03-31T05:16:54.084Z,65.87
2019-03-31T05:19:25.214Z,64.30
2019-03-31T05:21:57.331Z,70.50
2019-03-31T05:24:27.912Z,69.03
2019-03-31T05:27:02.861Z,65.53
2019-03-31T05:29:33.516Z,64.53
2019-03-31T05:32:05.085Z,66.53
2019-03-31T05:34:35.643Z,65.33
2019-03-31T05:37:06.052Z,66.43
2019-03-31T05:39:36.516Z,62.88
2019-03-31T05:42:06.941Z,71.90
2019-03-31T05:44:37.369Z,59.48
2019-03-31T05:47:10.215Z,59.83
2019-03-31T05:49:40.145Z,60.25
2019-03-31T05:52:10.595Z,59.85
2019-03-31T05:54:49.980Z,64.17
2019-03-31T05:57:20.381Z,54.73
2019-03-31T05:59:50.778Z,56.45
2019-03-31T06:02:21.250Z,54.50
2019-03-31T06:04:51.695Z,55.78
2019-03-31T06:07:22.162Z,52.48
2019-03-31T06:09:55.499Z,56.18
2019-03-31T06:12:27.489Z,54.73
2019-03-31T06:14:58.098Z,54.20
2019-03-31T06:17:30.381Z,55.10
2019-03-31T06:20:03.843Z,55.30
2019-03-31T06:22:34.407Z,58.60
2019-03-31T06:25:06.869Z,57.80
2019-03-31T06:27:38.959Z,58.13
2019-03-31T06:30:17.317Z,57.47
2019-03-31T06:32:55.601Z,62.25
2019-03-31T06:35:29.774Z,56.17
2019-03-31T06:38:01.050Z,57.83
2019-03-31T06:40:49.849Z,54.87
2019-03-31T06:43:30.833Z,54.43
2019-03-31T06:46:03.809Z,52.73
2019-03-31T06:48:40.382Z,51.40
2019-03-31T06:51:11.869Z,48.40
2019-03-31T06:53:44.986Z,49.87
2019-03-31T06:56:17.872Z,46.33
2019-03-31T06:58:48.335Z,44.17
2019-03-31T07:01:27.067Z,43.90
2019-03-31T07:03:55.618Z,38.97
2019-03-31T07:06:28.966Z,38.77
2019-03-31T07:09:11.235Z,36.40
2019-03-31T07:11:38.415Z,34.23
2019-03-31T07:14:08.913Z,35.37
2019-03-31T07:16:39.311Z,33.57
2019-03-31T07:19:09.708Z,31.70
2019-03-31T07:21:40.232Z,30.40
2019-03-31T07:24:10.638Z,29.50
2019-03-31T07:26:47.177Z,27.73
2019-03-31T07:29:19.263Z,26.20
2019-03-31T07:31:50.065Z,25.93
2019-03-31T07:34:20.545Z,25.73
2019-03-31T07:36:51.036Z,28.38
2019-03-31T07:39:21.472Z,26.53
2019-03-31T07:41:53.443Z,28.37
2019-03-31T07:44:23.934Z,27.13
2019-03-31T07:47:01.297Z,27.13
2019-03-31T07:50:03.171Z,26.77
2019-03-31T07:52:44.020Z,26.43
2019-03-31T07:55:17.055Z,27.40
2019-03-31T07:57:47.517Z,27.23
2019-03-31T08:00:24.608Z,26.10
2019-03-31T08:03:00.289Z,28.87
2019-03-31T08:05:33.327Z,27.33
2019-03-31T08:08:02.587Z,25.40
2019-03-31T08:10:33.038Z,24.60
2019-03-31T08:13:03.498Z,24.30
2019-03-31T08:15:33.949Z,24.57
2019-03-31T08:18:04.475Z,25.00
2019-03-31T08:20:37.662Z,26.47
2019-03-31T08:23:08.189Z,23.70
2019-03-31T08:25:55.267Z,24.37
2019-03-31T08:28:29.124Z,23.00
2019-03-31T08:30:59.548Z,22.40
2019-03-31T08:33:30.202Z,23.03
2019-03-31T08:36:00.624Z,22.40
2019-03-31T08:38:31.263Z,22.10
2019-03-31T08:41:01.714Z,22.57
2019-03-31T08:43:32.230Z,21.17
2019-03-31T08:46:02.659Z,21.97
2019-03-31T08:48:33.004Z,21.97
2019-03-31T08:51:04.427Z,22.60
2019-03-31T08:53:34.856Z,24.73
2019-03-31T08:56:08.570Z,21.77
2019-03-31T08:58:37.374Z,20.70
2019-03-31T09:01:09.340Z,20.77
2019-03-31T09:03:39.885Z,22.57
2019-03-31T09:06:12.446Z,21.30
2019-03-31T09:08:42.806Z,23.80
2019-03-31T09:11:13.336Z,21.77
2019-03-31T09:13:43.854Z,22.03
2019-03-31T09:16:14.268Z,20.43
2019-03-31T09:18:44.713Z,22.37
2019-03-31T09:21:15.210Z,21.40
2019-03-31T09:23:45.699Z,21.60
2019-03-31T09:26:16.194Z,22.47
2019-03-31T09:28:46.666Z,21.80
2019-03-31T09:31:17.095Z,20.80
2019-03-31T09:33:47.591Z,21.90
2019-03-31T09:36:18.078Z,20.87
2019-03-31T09:38:48.731Z,21.17
2019-03-31T09:41:19.197Z,21.30
2019-03-31T09:43:50.486Z,22.87
2019-03-31T09:46:20.846Z,25.50
2019-03-31T09:48:51.226Z,22.00
2019-03-31T09:51:21.717Z,22.57
2019-03-31T09:53:54.805Z,21.10
2019-03-31T09:56:32.825Z,20.50
2019-03-31T09:59:03.277Z,19.00
2019-03-31T10:01:33.783Z,19.67
2019-03-31T10:04:04.365Z,20.03
2019-03-31T10:06:34.914Z,19.20
2019-03-31T10:09:07.040Z,19.40
2019-03-31T10:11:37.553Z,19.63
2019-03-31T10:14:08.000Z,19.47
2019-03-31T10:16:38.461Z,18.27
2019-03-31T10:19:08.860Z,19.57
2019-03-31T10:21:39.345Z,18.63
2019-03-31T10:24:12.487Z,18.43
2019-03-31T10:26:43.004Z,17.27
2019-03-31T10:29:13.498Z,18.27
2019-03-31T10:31:43.932Z,18.37
2019-03-31T10:34:14.370Z,18.40
2019-03-31T10:36:45.171Z,18.43
2019-03-31T10:39:15.678Z,19.77
2019-03-31T10:41:46.160Z,19.13
2019-03-31T10:44:16.624Z,23.20
2019-03-31T10:53:11.069Z,23.70
2019-03-31T10:55:42.698Z,21.23
2019-03-31T10:58:13.290Z,20.73
2019-03-31T11:00:44.656Z,20.37
2019-03-31T11:03:15.858Z,20.13
2019-03-31T11:05:48.378Z,21.97
2019-03-31T11:08:19.012Z,21.67
2019-03-31T11:10:49.502Z,23.57
2019-03-31T11:13:20.881Z,22.80
2019-03-31T11:15:51.265Z,23.10
2019-03-31T11:18:21.951Z,24.03
2019-03-31T11:20:52.366Z,23.07
2019-03-31T11:23:24.451Z,22.77
2019-03-31T11:25:55.287Z,23.23
2019-03-31T11:28:26.060Z,24.37
2019-03-31T11:30:56.467Z,25.00
2019-03-31T11:33:26.878Z,22.57
2019-03-31T11:35:57.285Z,23.00
2019-03-31T11:38:27.697Z,22.07
2019-03-31T11:40:58.254Z,21.27
2019-03-31T11:43:28.678Z,21.83
2019-03-31T11:45:59.121Z,21.00
2019-03-31T11:48:29.499Z,20.10
2019-03-31T11:51:00.510Z,18.47
2019-03-31T11:53:31.258Z,20.08
2019-03-31T11:56:01.881Z,17.37
2019-03-31T11:58:32.540Z,16.77
2019-03-31T12:01:03.075Z,16.87
2019-03-31T12:03:33.523Z,16.90
2019-03-31T12:06:03.989Z,16.90
2019-03-31T12:08:34.422Z,15.67
2019-03-31T12:11:04.993Z,14.90
2019-03-31T12:13:35.411Z,16.45
2019-03-31T12:16:05.779Z,15.13
2019-03-31T12:18:38.995Z,15.13
2019-03-31T12:21:11.850Z,14.67
2019-03-31T12:23:45.023Z,15.05
2019-03-31T12:26:17.198Z,15.30
2019-03-31T12:28:50.669Z,14.83
2019-03-31T12:31:21.536Z,14.33
2019-03-31T12:33:51.957Z,14.93
2019-03-31T12:36:23.146Z,14.97
2019-03-31T12:38:58.570Z,15.27
2019-03-31T12:41:29.086Z,13.73
2019-03-31T12:44:03.690Z,14.73
2019-03-31T12:46:35.941Z,13.60
2019-03-31T12:49:06.391Z,12.47
2019-03-31T12:51:36.797Z,12.47
2019-03-31T12:54:07.234Z,11.93
2019-03-31T12:56:37.766Z,13.70
2019-03-31T12:59:08.258Z,13.72
2019-03-31T13:01:40.303Z,12.85
2019-03-31T13:04:11.541Z,12.18
2019-03-31T13:06:42.083Z,11.87
2019-03-31T13:09:12.491Z,12.10
2019-03-31T13:11:42.886Z,11.60
2019-03-31T13:14:18.422Z,11.53
2019-03-31T13:16:53.919Z,12.40
2019-03-31T13:19:32.770Z,11.60
2019-03-31T13:22:06.318Z,11.83
2019-03-31T13:24:40.995Z,13.28
2019-03-31T13:27:14.326Z,10.58
2019-03-31T13:29:44.745Z,11.30
2019-03-31T13:32:29.928Z,21.50
2019-03-31T13:34:58.740Z,11.10
2019-03-31T13:37:29.184Z,11.28
2019-03-31T13:39:59.724Z,10.50
2019-03-31T13:42:30.247Z,10.97
2019-03-31T13:45:07.405Z,11.60
2019-03-31T13:47:38.484Z,12.20
2019-03-31T13:50:09.904Z,11.30
2019-03-31T13:52:43.208Z,11.97
2019-03-31T13:55:13.587Z,11.50
2019-03-31T13:57:45.041Z,11.75
2019-03-31T14:00:25.085Z,10.85
2019-03-31T14:02:51.553Z,17.60
2019-03-31T14:05:22.002Z,13.15
2019-03-31T14:07:52.447Z,10.97
2019-03-31T14:10:22.902Z,12.27
2019-03-31T14:12:55.000Z,14.50
2019-03-31T14:15:27.716Z,15.70
2019-03-31T14:17:59.993Z,16.50
2019-03-31T14:20:31.727Z,17.70
2019-03-31T14:23:08.177Z,16.43
2019-03-31T14:25:38.592Z,16.20
2019-03-31T14:28:10.725Z,18.40
2019-03-31T14:30:41.200Z,14.77
2019-03-31T14:33:11.789Z,16.73
2019-03-31T14:35:45.020Z,14.80
2019-03-31T14:38:18.436Z,15.43
2019-03-31T14:40:50.678Z,15.00
2019-03-31T14:43:21.777Z,15.20
2019-03-31T14:45:52.149Z,15.70
2019-03-31T14:48:22.628Z,15.07
2019-03-31T14:50:54.677Z,15.30
2019-03-31T14:53:52.752Z,15.70
2019-03-31T14:57:02.458Z,15.10
2019-03-31T14:59:35.973Z,17.20
2019-03-31T15:02:20.879Z,15.50
2019-03-31T15:04:53.790Z,15.43
2019-03-31T15:07:24.183Z,17.57
2019-03-31T15:09:54.602Z,17.10
2019-03-31T15:12:25.097Z,16.40
2019-03-31T15:14:55.532Z,18.37
2019-03-31T15:17:25.972Z,16.80
2019-03-31T15:19:56.452Z,15.30
2019-03-31T15:22:26.938Z,16.00
2019-03-31T15:24:59.969Z,16.13
2019-03-31T15:27:30.397Z,15.30
2019-03-31T15:30:00.823Z,16.33
2019-03-31T15:32:31.377Z,21.40
2019-03-31T15:35:01.855Z,21.97
2019-03-31T15:37:32.367Z,31.10
2019-03-31T15:40:02.967Z,24.80
2019-03-31T15:42:33.359Z,20.30
2019-03-31T15:45:07.974Z,19.07
2019-03-31T15:47:38.441Z,19.53
2019-03-31T15:50:09.395Z,18.47
2019-03-31T15:52:41.093Z,18.20
2019-03-31T15:55:11.796Z,17.77
2019-03-31T15:57:42.244Z,17.07
2019-03-31T16:00:13.119Z,19.07
2019-03-31T16:02:43.571Z,19.13
2019-03-31T16:05:14.206Z,23.20
2019-03-31T16:07:46.756Z,23.03
2019-03-31T16:10:17.486Z,25.53
2019-03-31T16:12:47.894Z,25.07
2019-03-31T16:15:18.802Z,33.43
2019-03-31T16:17:49.172Z,36.67
2019-03-31T16:20:19.633Z,30.83
2019-03-31T16:22:50.050Z,40.37
2019-03-31T16:25:22.068Z,38.43
2019-03-31T16:27:52.602Z,43.47
2019-03-31T16:30:23.078Z,44.97
2019-03-31T16:32:53.578Z,37.43
2019-03-31T16:35:23.958Z,39.17
2019-03-31T16:37:54.364Z,39.73
2019-03-31T16:40:24.764Z,40.13
2019-03-31T16:42:55.243Z,30.93
2019-03-31T16:45:30.419Z,30.83
2019-03-31T16:48:03.722Z,35.53
2019-03-31T16:50:35.374Z,33.28
2019-03-31T16:53:07.586Z,38.97
2019-03-31T16:55:38.080Z,42.43
2019-03-31T16:58:10.457Z,43.03
2019-03-31T17:00:41.049Z,47.13
2019-03-31T17:03:11.663Z,48.83
2019-03-31T17:05:42.105Z,47.60
2019-03-31T17:08:12.648Z,44.30
2019-03-31T17:10:43.200Z,42.90
2019-03-31T17:13:13.649Z,55.60
2019-03-31T17:15:46.284Z,45.97
2019-03-31T17:18:17.151Z,44.60
2019-03-31T17:20:48.702Z,42.00
2019-03-31T17:23:22.482Z,52.37
2019-03-31T17:25:54.954Z,35.90
2019-03-31T17:28:27.309Z,38.40
2019-03-31T17:31:12.236Z,36.23
2019-03-31T17:33:35.237Z,37.20
2019-03-31T17:36:15.254Z,57.93
2019-03-31T17:38:51.147Z,70.00
2019-03-31T17:41:27.167Z,53.90
2019-03-31T17:43:59.559Z,60.33
2019-03-31T17:46:35.501Z,60.40
2019-03-31T17:49:12.041Z,57.27
2019-03-31T17:51:46.807Z,66.45
2019-03-31T17:54:19.891Z,43.43
2019-03-31T17:56:53.449Z,40.37
2019-03-31T17:59:28.961Z,43.30
2019-03-31T18:02:05.816Z,43.40
2019-03-31T18:04:38.978Z,36.77
2019-03-31T18:07:11.266Z,37.43
2019-03-31T18:09:47.695Z,35.27
2019-03-31T18:12:20.154Z,37.33
2019-03-31T18:15:02.605Z,35.13
2019-03-31T18:17:34.985Z,34.43
2019-03-31T18:20:09.038Z,32.43
2019-03-31T18:22:40.998Z,42.03
2019-03-31T18:25:13.267Z,29.87
2019-03-31T18:27:48.505Z,30.87
2019-03-31T18:30:29.882Z,44.07
2019-03-31T18:33:10.358Z,42.03
2019-03-31T18:35:48.800Z,42.23
2019-03-31T18:38:30.117Z,39.37
2019-03-31T18:41:03.645Z,40.20
2019-03-31T18:43:50.288Z,37.13
2019-03-31T18:46:11.767Z,67.50
2019-03-31T18:48:43.772Z,68.90
2019-03-31T18:51:20.456Z,40.87
2019-03-31T18:53:54.158Z,43.07
2019-03-31T18:56:44.143Z,41.77
2019-03-31T18:59:35.321Z,32.53
2019-03-31T19:02:25.232Z,31.10
2019-03-31T19:04:58.920Z,30.93
2019-03-31T19:07:52.165Z,32.80
2019-03-31T19:10:43.327Z,36.00
2019-03-31T19:13:12.645Z,47.97
2019-03-31T19:15:55.681Z,41.80
2019-03-31T19:18:32.063Z,48.87
2019-03-31T19:21:14.915Z,40.43
2019-03-31T19:23:52.796Z,39.53
2019-03-31T19:26:28.691Z,37.83
2019-03-31T19:29:02.143Z,35.23
2019-03-31T19:31:50.514Z,34.77
2019-03-31T19:34:33.316Z,55.57
2019-03-31T19:37:09.934Z,41.00
2019-03-31T19:39:58.803Z,49.00
2019-03-31T19:42:34.805Z,47.23
2019-03-31T19:45:20.989Z,34.30
2019-03-31T19:47:53.227Z,31.77
2019-03-31T19:50:41.076Z,31.10
2019-03-31T19:53:24.564Z,32.80
2019-03-31T19:56:07.555Z,37.90
2019-03-31T19:58:30.296Z,44.50
2019-03-31T20:01:22.617Z,33.57
2019-03-31T20:04:00.717Z,29.43
2019-03-31T20:06:44.492Z,29.50
2019-03-31T20:09:22.412Z,30.40
2019-03-31T20:12:12.868Z,30.53
2019-03-31T20:15:01.187Z,28.47
2019-03-31T20:17:45.907Z,30.37
2019-03-31T20:20:26.918Z,27.17
2019-03-31T20:23:05.621Z,27.87
2019-03-31T20:25:37.606Z,26.23
2019-03-31T20:28:09.673Z,27.83
2019-03-31T20:30:47.410Z,26.20
2019-03-31T20:33:31.486Z,24.97
2019-03-31T20:36:19.818Z,28.50
2019-03-31T20:38:55.616Z,26.30
2019-03-31T20:41:44.079Z,26.00
2019-03-31T20:44:14.542Z,34.80
2019-03-31T20:46:47.992Z,28.53
2019-03-31T20:49:18.540Z,27.00
2019-03-31T20:51:48.973Z,30.35
2019-03-31T20:54:19.356Z,29.30
2019-03-31T20:56:51.761Z,39.63
2019-03-31T20:59:22.177Z,40.83
2019-03-31T21:01:53.893Z,40.23
2019-03-31T21:04:24.344Z,42.97
2019-03-31T21:06:54.760Z,44.57
2019-03-31T21:09:25.262Z,41.47
2019-03-31T21:11:55.691Z,46.20
2019-03-31T21:14:26.140Z,47.20
2019-03-31T21:16:56.519Z,39.43
2019-03-31T21:19:26.919Z,43.30
2019-03-31T21:21:57.323Z,48.60
2019-03-31T21:24:27.727Z,52.53
2019-03-31T21:26:58.218Z,26.33
2019-03-31T21:29:28.627Z,28.87
2019-03-31T21:31:59.086Z,34.90
2019-03-31T21:34:29.599Z,27.77
2019-03-31T21:37:00.041Z,27.27
2019-03-31T21:39:30.522Z,29.60
2019-03-31T21:42:00.934Z,26.03
2019-03-31T21:44:31.350Z,26.17
2019-03-31T21:47:01.889Z,27.10
2019-03-31T21:49:32.352Z,26.13
2019-03-31T21:52:02.761Z,27.43
2019-03-31T21:54:33.186Z,32.67
2019-03-31T21:57:03.831Z,45.50
2019-03-31T21:59:34.271Z,29.87
2019-03-31T22:02:06.093Z,30.53
2019-03-31T22:04:36.582Z,30.43
2019-03-31T22:07:07.027Z,26.60
2019-03-31T22:09:37.584Z,26.90
2019-03-31T22:12:07.992Z,28.67
2019-03-31T22:14:38.456Z,27.20
2019-03-31T22:17:08.917Z,26.80
2019-03-31T22:19:39.297Z,29.87
2019-03-31T22:22:09.705Z,29.53
2019-03-31T22:24:40.095Z,25.90
2019-03-31T22:27:10.597Z,22.73
2019-03-31T22:29:41.080Z,21.23
2019-03-31T22:32:11.569Z,22.13
2019-03-31T22:34:41.900Z,22.53
2019-03-31T22:37:12.381Z,23.47
2019-03-31T22:39:42.799Z,23.03
2019-03-31T22:42:13.216Z,27.53
2019-03-31T22:44:43.650Z,36.53
2019-03-31T22:47:14.062Z,31.97
2019-03-31T22:49:44.471Z,24.30
2019-03-31T22:52:14.932Z,22.40
2019-03-31T22:54:45.375Z,23.03
2019-03-31T22:57:15.785Z,21.07
2019-03-31T22:59:46.262Z,22.13
2019-03-31T23:02:16.684Z,21.00
2019-03-31T23:04:47.257Z,21.37
2019-03-31T23:07:17.743Z,23.67
2019-03-31T23:09:48.232Z,22.50
2019-03-31T23:12:21.260Z,21.70
2019-03-31T23:14:51.681Z,21.07
2019-03-31T23:17:22.094Z,21.67
2019-03-31T23:19:52.575Z,20.27
2019-03-31T23:22:22.945Z,22.30
2019-03-31T23:24:53.398Z,20.67
2019-03-31T23:27:23.764Z,22.20
2019-03-31T23:29:54.196Z,25.13
2019-03-31T23:32:24.624Z,22.00
2019-03-31T23:34:55.142Z,21.47
2019-03-31T23:37:25.562Z,22.23
2019-03-31T23:39:56.009Z,21.20
2019-03-31T23:42:26.418Z,21.20
2019-03-31T23:44:56.779Z,20.37
2019-03-31T23:47:27.199Z,23.12
2019-03-31T23:49:57.574Z,21.37
2019-03-31T23:52:28.007Z,21.77
2019-03-31T23:55:03.518Z,21.53
2019-03-31T23:57:40.518Z,21.17
